sensor_id;sensor_type;location;lat;lon;timestamp;P1;durP1;ratioP1;P2;durP2;ratioP2
16133;SDS011;8172;45.018;5.972;2022-10-16T00:04:30;1.17;;;0.80;;
16133;SDS011;8172;45.018;5.972;2022-10-16T00:09:45;0.80;;;0.80;;
16133;SDS011;8172;45.018;5.972;2022-10-16T00:14:58;1.27;;;0.87;;
16133;SDS011;8172;45.018;5.972;2022-10-16T00:20:10;4.80;;;1.20;;
16133;SDS011;8172;45.018;5.972;2022-10-16T00:25:28;2.53;;;0.70;;
16133;SDS011;8172;45.018;5.972;2022-10-16T00:30:39;1.00;;;0.90;;
16133;SDS011;8172;45.018;5.972;2022-10-16T00:35:48;1.00;;;0.90;;
16133;SDS011;8172;45.018;5.972;2022-10-16T00:40:57;2.10;;;0.93;;
16133;SDS011;8172;45.018;5.972;2022-10-16T00:51:19;2.17;;;0.97;;
16133;SDS011;8172;45.018;5.972;2022-10-16T00:56:35;1.37;;;0.80;;
16133;SDS011;8172;45.018;5.972;2022-10-16T01:01:45;1.40;;;1.00;;
16133;SDS011;8172;45.018;5.972;2022-10-16T01:07:01;1.03;;;0.93;;
16133;SDS011;8172;45.018;5.972;2022-10-16T01:12:12;1.77;;;0.90;;
16133;SDS011;8172;45.018;5.972;2022-10-16T01:22:40;1.10;;;0.80;;
16133;SDS011;8172;45.018;5.972;2022-10-16T01:27:48;2.30;;;0.90;;
16133;SDS011;8172;45.018;5.972;2022-10-16T01:38:19;2.07;;;0.90;;
16133;SDS011;8172;45.018;5.972;2022-10-16T01:43:24;0.80;;;0.80;;
16133;SDS011;8172;45.018;5.972;2022-10-16T01:48:35;1.30;;;0.87;;
16133;SDS011;8172;45.018;5.972;2022-10-16T01:53:45;1.43;;;0.90;;
16133;SDS011;8172;45.018;5.972;2022-10-16T01:58:56;0.90;;;0.90;;
16133;SDS011;8172;45.018;5.972;2022-10-16T02:04:13;5.67;;;1.00;;
16133;SDS011;8172;45.018;5.972;2022-10-16T02:09:26;2.20;;;0.80;;
16133;SDS011;8172;45.018;5.972;2022-10-16T02:14:38;1.07;;;0.80;;
16133;SDS011;8172;45.018;5.972;2022-10-16T02:19:48;2.10;;;0.80;;
16133;SDS011;8172;45.018;5.972;2022-10-16T02:25:04;0.80;;;0.80;;
16133;SDS011;8172;45.018;5.972;2022-10-16T02:30:21;2.20;;;0.80;;
16133;SDS011;8172;45.018;5.972;2022-10-16T02:35:29;4.40;;;0.90;;
16133;SDS011;8172;45.018;5.972;2022-10-16T02:40:38;2.20;;;0.70;;
16133;SDS011;8172;45.018;5.972;2022-10-16T02:45:49;1.47;;;0.70;;
16133;SDS011;8172;45.018;5.972;2022-10-16T02:51:03;0.80;;;0.80;;
16133;SDS011;8172;45.018;5.972;2022-10-16T02:56:13;0.63;;;0.63;;
16133;SDS011;8172;45.018;5.972;2022-10-16T03:01:22;1.47;;;0.83;;
16133;SDS011;8172;45.018;5.972;2022-10-16T03:06:34;1.80;;;0.80;;
16133;SDS011;8172;45.018;5.972;2022-10-16T03:11:43;0.97;;;0.70;;
16133;SDS011;8172;45.018;5.972;2022-10-16T03:16:53;1.40;;;0.73;;
16133;SDS011;8172;45.018;5.972;2022-10-16T03:22:02;0.80;;;0.80;;
16133;SDS011;8172;45.018;5.972;2022-10-16T03:27:12;3.07;;;1.20;;
16133;SDS011;8172;45.018;5.972;2022-10-16T03:32:22;1.00;;;0.93;;
16133;SDS011;8172;45.018;5.972;2022-10-16T03:37:32;0.90;;;0.80;;
16133;SDS011;8172;45.018;5.972;2022-10-16T03:42:43;1.40;;;0.80;;
16133;SDS011;8172;45.018;5.972;2022-10-16T03:47:54;0.87;;;0.80;;
16133;SDS011;8172;45.018;5.972;2022-10-16T03:53:06;0.97;;;0.87;;
16133;SDS011;8172;45.018;5.972;2022-10-16T03:58:16;1.67;;;0.70;;
16133;SDS011;8172;45.018;5.972;2022-10-16T04:03:29;2.60;;;2.07;;
16133;SDS011;8172;45.018;5.972;2022-10-16T04:08:41;1.10;;;0.90;;
16133;SDS011;8172;45.018;5.972;2022-10-16T04:13:52;0.87;;;0.80;;
16133;SDS011;8172;45.018;5.972;2022-10-16T04:19:00;4.30;;;1.03;;
16133;SDS011;8172;45.018;5.972;2022-10-16T04:24:13;2.50;;;0.97;;
16133;SDS011;8172;45.018;5.972;2022-10-16T04:29:22;1.77;;;0.80;;
16133;SDS011;8172;45.018;5.972;2022-10-16T04:34:34;1.27;;;0.80;;
16133;SDS011;8172;45.018;5.972;2022-10-16T04:39:47;3.03;;;0.90;;
16133;SDS011;8172;45.018;5.972;2022-10-16T04:44:57;1.13;;;0.90;;
16133;SDS011;8172;45.018;5.972;2022-10-16T04:50:08;1.53;;;1.00;;
16133;SDS011;8172;45.018;5.972;2022-10-16T04:55:23;3.10;;;2.10;;
16133;SDS011;8172;45.018;5.972;2022-10-16T05:00:34;2.23;;;1.00;;
16133;SDS011;8172;45.018;5.972;2022-10-16T05:05:47;3.30;;;0.97;;
16133;SDS011;8172;45.018;5.972;2022-10-16T05:10:56;3.30;;;1.60;;
16133;SDS011;8172;45.018;5.972;2022-10-16T05:16:09;1.20;;;1.00;;
16133;SDS011;8172;45.018;5.972;2022-10-16T05:21:18;1.53;;;0.93;;
16133;SDS011;8172;45.018;5.972;2022-10-16T05:26:28;1.60;;;1.10;;
16133;SDS011;8172;45.018;5.972;2022-10-16T05:31:40;2.03;;;1.00;;
16133;SDS011;8172;45.018;5.972;2022-10-16T05:36:51;1.73;;;0.70;;
16133;SDS011;8172;45.018;5.972;2022-10-16T05:42:03;1.53;;;0.90;;
16133;SDS011;8172;45.018;5.972;2022-10-16T05:47:14;1.53;;;0.90;;
16133;SDS011;8172;45.018;5.972;2022-10-16T05:52:26;1.00;;;0.90;;
16133;SDS011;8172;45.018;5.972;2022-10-16T05:57:35;1.37;;;1.27;;
16133;SDS011;8172;45.018;5.972;2022-10-16T06:02:46;3.80;;;1.17;;
16133;SDS011;8172;45.018;5.972;2022-10-16T06:08:00;1.80;;;0.87;;
16133;SDS011;8172;45.018;5.972;2022-10-16T06:13:09;1.67;;;1.13;;
16133;SDS011;8172;45.018;5.972;2022-10-16T06:18:19;2.10;;;1.10;;
16133;SDS011;8172;45.018;5.972;2022-10-16T06:23:30;1.20;;;1.07;;
16133;SDS011;8172;45.018;5.972;2022-10-16T06:28:41;2.50;;;1.50;;
16133;SDS011;8172;45.018;5.972;2022-10-16T06:33:52;2.83;;;1.00;;
16133;SDS011;8172;45.018;5.972;2022-10-16T06:39:01;3.90;;;1.30;;
16133;SDS011;8172;45.018;5.972;2022-10-16T06:44:13;2.33;;;1.13;;
16133;SDS011;8172;45.018;5.972;2022-10-16T06:49:23;2.37;;;1.10;;
16133;SDS011;8172;45.018;5.972;2022-10-16T06:54:35;1.67;;;1.10;;
16133;SDS011;8172;45.018;5.972;2022-10-16T06:59:46;1.20;;;1.10;;
16133;SDS011;8172;45.018;5.972;2022-10-16T07:04:59;1.50;;;1.10;;
16133;SDS011;8172;45.018;5.972;2022-10-16T07:10:13;1.83;;;1.13;;
16133;SDS011;8172;45.018;5.972;2022-10-16T07:15:23;1.83;;;1.30;;
16133;SDS011;8172;45.018;5.972;2022-10-16T07:20:33;1.50;;;1.20;;
16133;SDS011;8172;45.018;5.972;2022-10-16T07:25:43;2.37;;;1.27;;
16133;SDS011;8172;45.018;5.972;2022-10-16T07:36:16;4.03;;;1.30;;
16133;SDS011;8172;45.018;5.972;2022-10-16T07:41:36;1.60;;;1.20;;
16133;SDS011;8172;45.018;5.972;2022-10-16T07:46:54;5.23;;;1.20;;
16133;SDS011;8172;45.018;5.972;2022-10-16T07:52:06;1.97;;;1.30;;
16133;SDS011;8172;45.018;5.972;2022-10-16T07:57:16;2.20;;;1.17;;
16133;SDS011;8172;45.018;5.972;2022-10-16T08:02:29;1.67;;;1.20;;
16133;SDS011;8172;45.018;5.972;2022-10-16T08:07:43;1.30;;;1.10;;
16133;SDS011;8172;45.018;5.972;2022-10-16T08:13:01;1.70;;;1.10;;
16133;SDS011;8172;45.018;5.972;2022-10-16T08:18:14;3.30;;;1.20;;
16133;SDS011;8172;45.018;5.972;2022-10-16T08:23:24;1.40;;;1.30;;
16133;SDS011;8172;45.018;5.972;2022-10-16T08:28:35;3.77;;;1.40;;
16133;SDS011;8172;45.018;5.972;2022-10-16T08:33:44;1.80;;;1.27;;
16133;SDS011;8172;45.018;5.972;2022-10-16T08:38:54;2.23;;;1.20;;
16133;SDS011;8172;45.018;5.972;2022-10-16T08:49:14;1.43;;;1.00;;
16133;SDS011;8172;45.018;5.972;2022-10-16T08:59:38;3.03;;;1.10;;
16133;SDS011;8172;45.018;5.972;2022-10-16T09:04:56;1.20;;;1.10;;
16133;SDS011;8172;45.018;5.972;2022-10-16T09:15:39;1.27;;;1.00;;
16133;SDS011;8172;45.018;5.972;2022-10-16T09:25:58;1.10;;;1.03;;
16133;SDS011;8172;45.018;5.972;2022-10-16T09:31:13;1.07;;;0.93;;
16133;SDS011;8172;45.018;5.972;2022-10-16T09:36:27;1.00;;;0.90;;
16133;SDS011;8172;45.018;5.972;2022-10-16T09:41:39;5.60;;;1.43;;
16133;SDS011;8172;45.018;5.972;2022-10-16T09:57:17;1.83;;;1.00;;
16133;SDS011;8172;45.018;5.972;2022-10-16T10:02:34;1.47;;;0.90;;
16133;SDS011;8172;45.018;5.972;2022-10-16T10:07:52;1.13;;;0.87;;
16133;SDS011;8172;45.018;5.972;2022-10-16T10:13:04;2.40;;;1.10;;
16133;SDS011;8172;45.018;5.972;2022-10-16T10:18:17;2.97;;;0.90;;
16133;SDS011;8172;45.018;5.972;2022-10-16T10:23:34;1.73;;;1.00;;
16133;SDS011;8172;45.018;5.972;2022-10-16T10:29:05;1.23;;;1.00;;
16133;SDS011;8172;45.018;5.972;2022-10-16T10:39:33;1.53;;;1.10;;
16133;SDS011;8172;45.018;5.972;2022-10-16T10:50:25;1.20;;;1.10;;
16133;SDS011;8172;45.018;5.972;2022-10-16T11:06:08;1.73;;;1.10;;
16133;SDS011;8172;45.018;5.972;2022-10-16T11:11:25;1.37;;;1.20;;
16133;SDS011;8172;45.018;5.972;2022-10-16T11:16:32;1.30;;;0.97;;
16133;SDS011;8172;45.018;5.972;2022-10-16T11:21:44;1.10;;;1.00;;
16133;SDS011;8172;45.018;5.972;2022-10-16T11:26:54;1.10;;;0.90;;
16133;SDS011;8172;45.018;5.972;2022-10-16T11:32:06;1.40;;;1.20;;
16133;SDS011;8172;45.018;5.972;2022-10-16T11:37:27;2.47;;;0.90;;
16133;SDS011;8172;45.018;5.972;2022-10-16T11:42:34;0.93;;;0.90;;
16133;SDS011;8172;45.018;5.972;2022-10-16T11:47:57;3.80;;;1.17;;
16133;SDS011;8172;45.018;5.972;2022-10-16T12:03:30;2.20;;;1.30;;
16133;SDS011;8172;45.018;5.972;2022-10-16T12:08:47;1.40;;;1.10;;
16133;SDS011;8172;45.018;5.972;2022-10-16T12:19:12;1.73;;;1.10;;
16133;SDS011;8172;45.018;5.972;2022-10-16T12:29:44;1.27;;;1.00;;
16133;SDS011;8172;45.018;5.972;2022-10-16T12:35:03;1.10;;;1.00;;
16133;SDS011;8172;45.018;5.972;2022-10-16T12:40:31;2.03;;;1.10;;
16133;SDS011;8172;45.018;5.972;2022-10-16T12:45:40;3.33;;;1.10;;
16133;SDS011;8172;45.018;5.972;2022-10-16T12:50:51;1.10;;;1.00;;
16133;SDS011;8172;45.018;5.972;2022-10-16T13:01:24;2.30;;;0.90;;
16133;SDS011;8172;45.018;5.972;2022-10-16T13:27:36;3.63;;;1.10;;
16133;SDS011;8172;45.018;5.972;2022-10-16T13:32:47;1.70;;;1.00;;
16133;SDS011;8172;45.018;5.972;2022-10-16T13:38:20;2.27;;;1.33;;
16133;SDS011;8172;45.018;5.972;2022-10-16T13:43:35;1.63;;;1.00;;
16133;SDS011;8172;45.018;5.972;2022-10-16T13:54:09;1.10;;;1.00;;
16133;SDS011;8172;45.018;5.972;2022-10-16T14:04:40;1.30;;;1.20;;
16133;SDS011;8172;45.018;5.972;2022-10-16T14:09:50;1.43;;;1.00;;
16133;SDS011;8172;45.018;5.972;2022-10-16T14:15:15;1.70;;;0.97;;
16133;SDS011;8172;45.018;5.972;2022-10-16T14:20:20;3.93;;;1.40;;
16133;SDS011;8172;45.018;5.972;2022-10-16T14:25:31;1.30;;;1.10;;
16133;SDS011;8172;45.018;5.972;2022-10-16T14:41:16;1.40;;;1.17;;
16133;SDS011;8172;45.018;5.972;2022-10-16T14:46:31;1.80;;;1.10;;
16133;SDS011;8172;45.018;5.972;2022-10-16T14:51:46;2.57;;;1.50;;
16133;SDS011;8172;45.018;5.972;2022-10-16T14:56:57;2.63;;;1.13;;
16133;SDS011;8172;45.018;5.972;2022-10-16T15:07:20;2.77;;;1.23;;
16133;SDS011;8172;45.018;5.972;2022-10-16T15:12:33;2.13;;;1.17;;
16133;SDS011;8172;45.018;5.972;2022-10-16T15:17:45;3.43;;;1.40;;
16133;SDS011;8172;45.018;5.972;2022-10-16T15:23:02;1.57;;;1.20;;
16133;SDS011;8172;45.018;5.972;2022-10-16T15:28:16;3.53;;;1.20;;
16133;SDS011;8172;45.018;5.972;2022-10-16T15:33:32;1.23;;;1.07;;
16133;SDS011;8172;45.018;5.972;2022-10-16T15:38:42;2.37;;;1.23;;
16133;SDS011;8172;45.018;5.972;2022-10-16T15:43:59;1.93;;;1.00;;
16133;SDS011;8172;45.018;5.972;2022-10-16T15:49:08;1.17;;;1.07;;
16133;SDS011;8172;45.018;5.972;2022-10-16T15:54:21;1.90;;;1.00;;
16133;SDS011;8172;45.018;5.972;2022-10-16T15:59:31;1.53;;;1.30;;
16133;SDS011;8172;45.018;5.972;2022-10-16T16:10:23;1.00;;;0.90;;
16133;SDS011;8172;45.018;5.972;2022-10-16T16:15:37;2.97;;;1.20;;
16133;SDS011;8172;45.018;5.972;2022-10-16T16:21:00;1.20;;;1.10;;
16133;SDS011;8172;45.018;5.972;2022-10-16T16:31:43;1.20;;;1.10;;
16133;SDS011;8172;45.018;5.972;2022-10-16T16:36:56;1.80;;;1.10;;
16133;SDS011;8172;45.018;5.972;2022-10-16T16:42:06;1.80;;;1.10;;
16133;SDS011;8172;45.018;5.972;2022-10-16T16:47:45;2.80;;;1.47;;
16133;SDS011;8172;45.018;5.972;2022-10-16T16:52:57;1.10;;;1.00;;
16133;SDS011;8172;45.018;5.972;2022-10-16T16:58:07;2.00;;;1.07;;
16133;SDS011;8172;45.018;5.972;2022-10-16T17:03:20;4.67;;;1.43;;
16133;SDS011;8172;45.018;5.972;2022-10-16T17:08:40;2.30;;;1.23;;
16133;SDS011;8172;45.018;5.972;2022-10-16T17:13:49;2.57;;;1.30;;
16133;SDS011;8172;45.018;5.972;2022-10-16T17:19:06;2.60;;;1.13;;
16133;SDS011;8172;45.018;5.972;2022-10-16T17:24:25;1.80;;;1.30;;
16133;SDS011;8172;45.018;5.972;2022-10-16T17:29:38;1.50;;;1.33;;
16133;SDS011;8172;45.018;5.972;2022-10-16T17:34:47;2.33;;;1.10;;
16133;SDS011;8172;45.018;5.972;2022-10-16T17:39:57;1.73;;;1.30;;
16133;SDS011;8172;45.018;5.972;2022-10-16T17:45:13;3.07;;;1.27;;
16133;SDS011;8172;45.018;5.972;2022-10-16T17:50:27;7.30;;;1.50;;
16133;SDS011;8172;45.018;5.972;2022-10-16T17:55:38;3.07;;;1.30;;
16133;SDS011;8172;45.018;5.972;2022-10-16T18:00:48;6.10;;;1.27;;
16133;SDS011;8172;45.018;5.972;2022-10-16T18:06:00;2.33;;;1.20;;
16133;SDS011;8172;45.018;5.972;2022-10-16T18:11:12;1.83;;;1.33;;
16133;SDS011;8172;45.018;5.972;2022-10-16T18:16:24;1.53;;;1.30;;
16133;SDS011;8172;45.018;5.972;2022-10-16T18:21:40;2.93;;;1.30;;
16133;SDS011;8172;45.018;5.972;2022-10-16T18:26:53;1.73;;;1.30;;
16133;SDS011;8172;45.018;5.972;2022-10-16T18:32:08;1.47;;;1.20;;
16133;SDS011;8172;45.018;5.972;2022-10-16T18:37:23;2.80;;;1.27;;
16133;SDS011;8172;45.018;5.972;2022-10-16T18:42:34;1.60;;;1.40;;
16133;SDS011;8172;45.018;5.972;2022-10-16T18:47:44;3.27;;;1.23;;
16133;SDS011;8172;45.018;5.972;2022-10-16T18:52:54;1.63;;;1.50;;
16133;SDS011;8172;45.018;5.972;2022-10-16T18:58:07;1.43;;;1.30;;
16133;SDS011;8172;45.018;5.972;2022-10-16T19:03:19;1.87;;;1.43;;
16133;SDS011;8172;45.018;5.972;2022-10-16T19:08:29;2.27;;;1.33;;
16133;SDS011;8172;45.018;5.972;2022-10-16T19:18:56;1.43;;;1.33;;
16133;SDS011;8172;45.018;5.972;2022-10-16T19:24:13;2.80;;;1.30;;
16133;SDS011;8172;45.018;5.972;2022-10-16T19:29:25;1.63;;;1.40;;
16133;SDS011;8172;45.018;5.972;2022-10-16T19:34:40;2.40;;;1.40;;
16133;SDS011;8172;45.018;5.972;2022-10-16T19:39:51;1.77;;;1.40;;
16133;SDS011;8172;45.018;5.972;2022-10-16T19:45:05;2.47;;;1.50;;
16133;SDS011;8172;45.018;5.972;2022-10-16T19:50:16;2.80;;;1.30;;
16133;SDS011;8172;45.018;5.972;2022-10-16T19:55:44;3.87;;;1.80;;
16133;SDS011;8172;45.018;5.972;2022-10-16T20:00:54;4.73;;;1.40;;
16133;SDS011;8172;45.018;5.972;2022-10-16T20:06:07;2.10;;;1.50;;
16133;SDS011;8172;45.018;5.972;2022-10-16T20:11:20;2.53;;;1.40;;
16133;SDS011;8172;45.018;5.972;2022-10-16T20:16:54;2.27;;;1.50;;
16133;SDS011;8172;45.018;5.972;2022-10-16T20:22:04;2.33;;;1.60;;
16133;SDS011;8172;45.018;5.972;2022-10-16T20:27:17;3.13;;;1.50;;
16133;SDS011;8172;45.018;5.972;2022-10-16T20:32:34;2.47;;;1.33;;
16133;SDS011;8172;45.018;5.972;2022-10-16T20:37:52;3.77;;;1.47;;
16133;SDS011;8172;45.018;5.972;2022-10-16T20:43:03;3.50;;;1.60;;
16133;SDS011;8172;45.018;5.972;2022-10-16T20:48:15;4.00;;;1.60;;
16133;SDS011;8172;45.018;5.972;2022-10-16T20:53:25;2.17;;;1.50;;
16133;SDS011;8172;45.018;5.972;2022-10-16T20:58:35;1.83;;;1.43;;
16133;SDS011;8172;45.018;5.972;2022-10-16T21:03:51;3.23;;;1.60;;
16133;SDS011;8172;45.018;5.972;2022-10-16T21:09:01;6.33;;;1.70;;
16133;SDS011;8172;45.018;5.972;2022-10-16T21:14:13;2.90;;;1.43;;
16133;SDS011;8172;45.018;5.972;2022-10-16T21:19:24;3.77;;;1.30;;
16133;SDS011;8172;45.018;5.972;2022-10-16T21:24:35;2.07;;;1.50;;
16133;SDS011;8172;45.018;5.972;2022-10-16T21:29:49;3.50;;;1.57;;
16133;SDS011;8172;45.018;5.972;2022-10-16T21:35:00;4.60;;;1.87;;
16133;SDS011;8172;45.018;5.972;2022-10-16T21:40:13;3.87;;;1.60;;
16133;SDS011;8172;45.018;5.972;2022-10-16T21:45:25;2.33;;;1.37;;
16133;SDS011;8172;45.018;5.972;2022-10-16T21:50:36;1.87;;;1.40;;
16133;SDS011;8172;45.018;5.972;2022-10-16T21:55:45;2.73;;;1.43;;
16133;SDS011;8172;45.018;5.972;2022-10-16T22:00:56;4.30;;;1.80;;
16133;SDS011;8172;45.018;5.972;2022-10-16T22:06:07;3.37;;;1.70;;
16133;SDS011;8172;45.018;5.972;2022-10-16T22:11:19;3.47;;;1.70;;
16133;SDS011;8172;45.018;5.972;2022-10-16T22:16:30;6.70;;;2.07;;
16133;SDS011;8172;45.018;5.972;2022-10-16T22:21:45;2.40;;;1.67;;
16133;SDS011;8172;45.018;5.972;2022-10-16T22:26:55;3.23;;;1.80;;
16133;SDS011;8172;45.018;5.972;2022-10-16T22:32:09;4.17;;;1.80;;
16133;SDS011;8172;45.018;5.972;2022-10-16T22:37:19;5.63;;;1.70;;
16133;SDS011;8172;45.018;5.972;2022-10-16T22:47:44;3.70;;;2.03;;
16133;SDS011;8172;45.018;5.972;2022-10-16T22:52:56;5.70;;;1.83;;
16133;SDS011;8172;45.018;5.972;2022-10-16T22:58:06;4.50;;;1.87;;
16133;SDS011;8172;45.018;5.972;2022-10-16T23:03:22;2.30;;;1.70;;
16133;SDS011;8172;45.018;5.972;2022-10-16T23:08:32;3.83;;;1.70;;
16133;SDS011;8172;45.018;5.972;2022-10-16T23:13:44;5.90;;;2.17;;
16133;SDS011;8172;45.018;5.972;2022-10-16T23:18:55;5.40;;;1.60;;
16133;SDS011;8172;45.018;5.972;2022-10-16T23:24:25;5.73;;;1.80;;
16133;SDS011;8172;45.018;5.972;2022-10-16T23:29:37;4.50;;;1.70;;
16133;SDS011;8172;45.018;5.972;2022-10-16T23:34:48;6.00;;;1.53;;
16133;SDS011;8172;45.018;5.972;2022-10-16T23:40:00;4.30;;;1.73;;
16133;SDS011;8172;45.018;5.972;2022-10-16T23:45:30;5.70;;;1.80;;
16133;SDS011;8172;45.018;5.972;2022-10-16T23:50:40;3.27;;;1.60;;
16133;SDS011;8172;45.018;5.972;2022-10-16T23:55:51;4.13;;;1.70;;
